Ocho Rios, Jamaica
Current Conditions -  °F | °C
As of 10:00 AM on Thursday 30 Oct 2014 (Local Time) from MKJP Reporting Station
Few Clouds Few Clouds  
Wind Chill: 84°   Ceiling: Unl
Heat Index: 91°   Visibility: 6mi
Dew Point: 73°   Wind: 7mph
Humidity: 70%   Direction: 330°NNW
Pressure: 29.88"   Gusts: NA
Location:  18.42°N, 77.11°W
Report Text: MKJP 301500Z 33006KT 9999 FEW022TCU 29/23 Q1012
Loading
Personal Weather Stations






























Interactive Weather Map
Tropical Storm Tracking
New forecast layout! Learn more

10-Day Weather Forecast

Advertisements
Track Severe Weather on mobile